Brandon, FL (33511)

2:55 PM EDT en Octubre 01, 2016 (GMT -0400)
Cambridge Pl | | Change Station

Alt 85 ft 27.93 °N, 82.29 °W | Updated 25 seconds ago

Scattered Clouds
Nubes dispersas
90.7 ° F
Sensación térmica 86 ° F
N
0.0
Viento Variable Viento desde NNO
Gusts 0.0 mph

Hoy
Alta -- | Baja -- ° F
--% Posibilidad de precipitaciones
Ayer
Alta -- | Baja -- ° F
Precip. -- pul
Presión 29.99 pul
Visibilidad -9999.0 Millas
Nubes Nubes dispersas 4800 ft
Nubes dispersas 8000 ft
Índice de calor 86 ° F
Punto de rocío 27 ° F
Humedad 10%
Precipitaciones 0.00 pul
Espesor de la nieve No disponible.
7:22 AM 7:14 PM
Luna nueva, 1% visible
METAR KVDF 011855Z AUTO 00000KT SCT048 SCT080 32/22 A2999 RMK AO2 PWINO
Presión 29.99 pul
Visibilidad -9999.0 Millas
Nubes Nubes dispersas 4800 ft
Nubes dispersas 8000 ft
Índice de calor 86 ° F
Punto de rocío 27 ° F
Humedad 10%
Precipitaciones 0.00 pul
Espesor de la nieve No disponible.
7:22 AM 7:14 PM
Luna nueva, 1% visible
METAR KVDF 011855Z AUTO 00000KT SCT048 SCT080 32/22 A2999 RMK AO2 PWINO

10-Day Weather Forecast

Almanac

Astronomía

Oct. 01, 2016 Salida Puesta
Hora real
Crepúsculo civil
Crepúsculo náutico
Crepúsculo astronómico
Luna
Horas de luz
Horas de luz
Tomorrow will be .
, % of the Moon is Illuminated

Extremos de hoy

Máximos del estado Bajos del estado

Community

WunderPhotos

Upload Photos

1,942,990 ¡fotos cargadas!

WunderBlog® & News

Nearby

Calidad del aire

  Calidad del aire Índice AQ Contaminante
Not available.

Grosos de nieve

Estación Profundido Altura

Actividad de terremotos

Ciudad Distance Mag. Tiempo y dato
Magnitud mínima muestra es 2,5.

Temperaturas de aguas costeras

Lugar Temperatura

Stations

Estaciones meteorológicas cercanas

Ubicación de la estación Temp. Vientos helados Punto de rocío Humedad Viento Precip. Alt Actualizado Tipo
                   

Watches & Warnings

There are currently no watches in effect.